createdAt,value
2023-01-09T00:01:25.685Z,66.15
2023-01-09T00:03:52.716Z,66.27
2023-01-09T00:06:19.697Z,66.61
2023-01-09T00:08:46.741Z,66.20
2023-01-09T00:11:13.755Z,66.29
2023-01-09T00:13:40.733Z,66.15
2023-01-09T00:16:08.747Z,66.53
2023-01-09T00:18:37.933Z,66.16
2023-01-09T00:21:09.347Z,66.14
2023-01-09T00:23:36.722Z,66.13
2023-01-09T00:26:19.629Z,66.47
2023-01-09T00:28:49.804Z,66.41
2023-01-09T00:31:18.332Z,66.29
2023-01-09T00:33:59.538Z,66.02
2023-01-09T00:36:27.277Z,66.03
2023-01-09T00:38:54.556Z,66.13
2023-01-09T00:41:27.767Z,66.01
2023-01-09T00:44:07.332Z,66.05
2023-01-09T00:46:40.822Z,65.89
2023-01-09T00:49:09.679Z,65.91
2023-01-09T00:51:38.141Z,65.70
2023-01-09T00:54:05.568Z,65.70
2023-01-09T00:56:36.058Z,66.03
2023-01-09T00:59:04.560Z,65.83
2023-01-09T01:01:32.030Z,66.02
2023-01-09T01:03:59.047Z,65.97
2023-01-09T01:06:58.263Z,65.91
2023-01-09T01:09:25.314Z,65.69
2023-01-09T01:11:52.223Z,65.95
2023-01-09T01:14:19.264Z,66.22
2023-01-09T01:16:46.368Z,65.93
2023-01-09T01:19:13.527Z,66.00
2023-01-09T01:21:40.842Z,66.07
2023-01-09T01:24:07.919Z,66.14
2023-01-09T01:26:34.854Z,66.03
2023-01-09T01:29:02.157Z,66.06
2023-01-09T01:31:29.118Z,66.04
2023-01-09T01:33:57.608Z,66.33
2023-01-09T01:36:24.751Z,66.13
2023-01-09T01:38:52.099Z,66.19
2023-01-09T01:41:29.600Z,66.60
2023-01-09T01:44:02.419Z,66.08
2023-01-09T01:46:31.826Z,66.00
2023-01-09T01:49:11.014Z,66.07
2023-01-09T01:51:45.005Z,66.21
2023-01-09T01:54:22.876Z,66.22
2023-01-09T01:56:56.940Z,66.00
2023-01-09T01:59:28.841Z,66.07
2023-01-09T02:02:00.683Z,66.64
2023-01-09T02:04:29.624Z,66.07
2023-01-09T02:06:58.846Z,66.24
2023-01-09T02:09:26.864Z,66.24
2023-01-09T02:11:57.631Z,66.28
2023-01-09T02:14:28.644Z,66.04
2023-01-09T02:17:21.129Z,66.35
2023-01-09T02:20:23.938Z,66.24
2023-01-09T02:23:21.784Z,66.02
2023-01-09T02:26:13.133Z,66.32
2023-01-09T02:29:20.702Z,66.34
2023-01-09T02:32:00.200Z,66.43
2023-01-09T02:34:33.715Z,66.34
2023-01-09T02:37:25.685Z,66.25
2023-01-09T02:40:25.664Z,66.27
2023-01-09T02:42:55.514Z,66.48
2023-01-09T02:45:22.975Z,66.48
2023-01-09T02:47:49.970Z,66.72
2023-01-09T02:50:33.787Z,66.71
2023-01-09T02:53:06.492Z,66.65
2023-01-09T02:56:06.681Z,66.58
2023-01-09T02:59:10.824Z,66.87
2023-01-09T03:02:01.503Z,66.76
2023-01-09T03:05:30.077Z,66.78
2023-01-09T03:08:04.918Z,66.94
2023-01-09T03:10:54.705Z,66.78
2023-01-09T03:13:25.936Z,66.93
2023-01-09T03:15:56.356Z,66.83
2023-01-09T03:18:27.518Z,66.92
2023-01-09T03:20:55.926Z,66.79
2023-01-09T03:23:23.355Z,66.67
2023-01-09T03:25:50.437Z,66.77
2023-01-09T03:28:30.095Z,66.77
2023-01-09T03:30:57.271Z,66.57
2023-01-09T03:33:24.187Z,66.60
2023-01-09T03:35:51.463Z,66.76
2023-01-09T03:38:18.487Z,66.50
2023-01-09T03:40:45.636Z,66.64
2023-01-09T03:43:12.768Z,66.62
2023-01-09T03:45:39.759Z,66.50
2023-01-09T03:48:06.993Z,66.72
2023-01-09T03:50:33.978Z,66.68
2023-01-09T03:53:01.326Z,66.45
2023-01-09T03:55:28.777Z,66.74
2023-01-09T03:57:55.746Z,66.65
2023-01-09T04:00:22.950Z,66.60
2023-01-09T04:02:50.744Z,66.70
2023-01-09T04:05:17.722Z,66.58
2023-01-09T04:07:44.905Z,66.54
2023-01-09T04:10:12.352Z,66.60
2023-01-09T04:12:39.535Z,66.54
2023-01-09T04:15:07.387Z,66.67
2023-01-09T04:17:34.387Z,66.69
2023-01-09T04:20:01.364Z,66.55
2023-01-09T04:22:28.343Z,66.41
2023-01-09T04:24:55.416Z,66.53
2023-01-09T04:27:22.336Z,66.53
2023-01-09T04:29:49.327Z,66.57
2023-01-09T04:32:16.401Z,66.50
2023-01-09T04:34:43.308Z,66.59
2023-01-09T04:37:10.528Z,66.80
2023-01-09T04:39:37.553Z,66.49
2023-01-09T04:42:04.670Z,66.58
2023-01-09T04:44:31.836Z,66.85
2023-01-09T04:46:59.035Z,66.78
2023-01-09T04:49:26.560Z,66.75
2023-01-09T04:51:54.000Z,66.63
2023-01-09T04:54:21.655Z,66.52
2023-01-09T04:56:49.303Z,66.62
2023-01-09T04:59:17.237Z,66.72
2023-01-09T05:01:44.427Z,66.76
2023-01-09T05:04:11.833Z,66.83
2023-01-09T05:06:39.389Z,66.56
2023-01-09T05:09:06.339Z,66.54
2023-01-09T05:11:33.303Z,66.62
2023-01-09T05:14:00.328Z,66.67
2023-01-09T05:16:27.329Z,66.85
2023-01-09T05:18:57.104Z,66.76
2023-01-09T05:21:24.700Z,66.59
2023-01-09T05:23:51.727Z,66.44
2023-01-09T05:26:23.980Z,66.90
2023-01-09T05:28:56.661Z,66.76
2023-01-09T05:31:25.895Z,66.69
2023-01-09T05:33:53.624Z,66.39
2023-01-09T05:36:20.659Z,66.58
2023-01-09T05:38:47.709Z,66.71
2023-01-09T05:41:14.866Z,66.33
2023-01-09T05:43:41.875Z,66.44
2023-01-09T05:46:09.275Z,66.54
2023-01-09T05:48:36.406Z,66.54
2023-01-09T05:51:03.584Z,66.46
2023-01-09T05:53:30.475Z,66.47
2023-01-09T05:55:57.553Z,66.47
2023-01-09T05:58:24.482Z,66.48
2023-01-09T06:00:53.736Z,66.56
2023-01-09T06:03:20.918Z,66.39
2023-01-09T06:05:47.923Z,66.67
2023-01-09T06:08:14.955Z,66.50
2023-01-09T06:10:41.873Z,66.54
2023-01-09T06:13:09.096Z,66.74
2023-01-09T06:15:36.356Z,66.76
2023-01-09T06:18:04.558Z,66.54
2023-01-09T06:20:32.738Z,66.56
2023-01-09T06:23:00.024Z,66.66
2023-01-09T06:25:26.992Z,66.38
2023-01-09T06:27:54.183Z,66.73
2023-01-09T06:30:21.802Z,66.62
2023-01-09T06:32:50.145Z,66.68
2023-01-09T06:35:22.270Z,66.60
2023-01-09T06:37:50.050Z,66.37
2023-01-09T06:40:20.109Z,66.51
2023-01-09T06:42:47.897Z,66.53
2023-01-09T06:45:15.719Z,66.56
2023-01-09T06:47:42.891Z,66.70
2023-01-09T06:50:11.262Z,66.59
2023-01-09T06:52:39.165Z,66.57
2023-01-09T06:55:07.502Z,66.89
2023-01-09T06:57:34.640Z,66.67
2023-01-09T07:00:01.805Z,66.82
2023-01-09T07:02:28.915Z,66.75
2023-01-09T07:04:55.868Z,66.71
2023-01-09T07:07:23.444Z,66.94
2023-01-09T07:09:50.687Z,66.61
2023-01-09T07:12:17.991Z,66.63
2023-01-09T07:14:45.038Z,66.68
2023-01-09T07:17:13.520Z,66.87
2023-01-09T07:19:42.089Z,66.79
2023-01-09T07:22:10.419Z,66.95
2023-01-09T07:24:37.732Z,66.79
2023-01-09T07:27:04.709Z,66.84
2023-01-09T07:29:31.919Z,66.59
2023-01-09T07:31:59.147Z,66.83
2023-01-09T07:34:26.111Z,66.80
2023-01-09T07:36:53.155Z,66.59
2023-01-09T07:39:20.261Z,66.75
2023-01-09T07:41:47.296Z,66.52
2023-01-09T07:44:17.053Z,66.46
2023-01-09T07:46:44.099Z,66.78
2023-01-09T07:49:11.523Z,66.48
2023-01-09T07:51:42.965Z,66.66
2023-01-09T07:54:11.795Z,66.70
2023-01-09T07:56:40.856Z,66.71
2023-01-09T07:59:07.945Z,66.91
2023-01-09T08:01:35.403Z,66.78
2023-01-09T08:04:02.612Z,66.73
2023-01-09T08:06:30.188Z,66.71
2023-01-09T08:08:57.966Z,66.62
2023-01-09T08:11:25.720Z,67.13
2023-01-09T08:13:53.147Z,66.89
2023-01-09T08:16:20.249Z,67.13
2023-01-09T08:18:47.332Z,67.10
2023-01-09T08:21:14.367Z,67.11
2023-01-09T08:23:41.429Z,67.06
2023-01-09T08:26:08.394Z,67.11
2023-01-09T08:28:35.367Z,67.13
2023-01-09T08:31:02.602Z,67.06
2023-01-09T08:33:29.914Z,67.17
2023-01-09T08:35:56.873Z,67.21
2023-01-09T08:38:24.059Z,67.27
2023-01-09T08:40:51.102Z,67.05
2023-01-09T08:43:37.112Z,67.16
2023-01-09T08:46:22.544Z,67.03
2023-01-09T08:48:49.707Z,67.19
2023-01-09T08:51:16.688Z,66.94
2023-01-09T08:53:43.708Z,66.91
2023-01-09T08:56:10.839Z,66.74
2023-01-09T08:58:38.073Z,66.63
2023-01-09T09:01:08.486Z,66.51
2023-01-09T09:03:35.993Z,66.40
2023-01-09T09:06:03.197Z,66.37
2023-01-09T09:08:30.271Z,66.28
2023-01-09T09:10:57.442Z,66.15
2023-01-09T09:13:24.422Z,66.20
2023-01-09T09:15:51.515Z,66.16
2023-01-09T09:18:18.726Z,66.35
2023-01-09T09:20:46.028Z,66.07
2023-01-09T09:23:13.020Z,66.00
2023-01-09T09:25:40.007Z,66.01
2023-01-09T09:28:07.762Z,65.95
2023-01-09T09:30:34.970Z,65.82
2023-01-09T09:33:05.895Z,65.94
2023-01-09T09:35:34.040Z,65.82
2023-01-09T09:38:05.419Z,65.68
2023-01-09T09:40:54.035Z,66.14
2023-01-09T09:44:12.621Z,66.13
2023-01-09T09:47:06.224Z,66.17
2023-01-09T09:50:15.697Z,66.28
2023-01-09T09:52:48.377Z,66.36
2023-01-09T09:55:40.766Z,66.36
2023-01-09T09:58:49.372Z,66.38
2023-01-09T10:01:23.308Z,66.56
2023-01-09T10:03:59.399Z,66.89
2023-01-09T10:06:33.966Z,66.56
2023-01-09T10:09:18.994Z,66.59
2023-01-09T10:12:13.291Z,66.63
2023-01-09T10:14:40.578Z,66.70
2023-01-09T10:17:39.204Z,66.35
2023-01-09T10:20:33.444Z,66.49
2023-01-09T10:23:48.122Z,66.26
2023-01-09T10:26:18.894Z,66.04
2023-01-09T10:29:04.841Z,65.53
2023-01-09T10:32:00.288Z,65.75
2023-01-09T10:34:46.890Z,65.67
2023-01-09T10:37:36.536Z,65.47
2023-01-09T10:40:30.473Z,64.08
2023-01-09T10:43:08.271Z,64.51
2023-01-09T10:45:50.775Z,64.33
2023-01-09T10:48:36.716Z,64.33
2023-01-09T10:51:17.721Z,64.29
2023-01-09T10:53:53.149Z,64.48
2023-01-09T10:56:27.638Z,64.61
2023-01-09T10:58:56.171Z,64.65
2023-01-09T11:01:31.427Z,64.67
2023-01-09T11:04:01.623Z,64.82
2023-01-09T11:06:48.095Z,64.87
2023-01-09T11:09:16.883Z,63.82
2023-01-09T11:11:47.313Z,64.10
2023-01-09T11:14:31.453Z,64.49
2023-01-09T11:17:02.227Z,64.41
2023-01-09T11:19:33.404Z,64.71
2023-01-09T11:22:16.423Z,64.22
2023-01-09T11:24:43.771Z,64.19
2023-01-09T11:27:13.841Z,63.48
2023-01-09T11:29:43.798Z,63.53
2023-01-09T11:32:24.873Z,63.80
2023-01-09T11:34:52.136Z,63.36
2023-01-09T11:37:30.511Z,63.54
2023-01-09T11:40:01.529Z,63.23
2023-01-09T11:42:48.534Z,63.52
2023-01-09T11:45:18.150Z,63.49
2023-01-09T11:47:45.448Z,63.25
2023-01-09T11:50:21.784Z,63.33
2023-01-09T11:53:16.457Z,63.62
2023-01-09T11:55:45.604Z,62.56
2023-01-09T11:58:21.763Z,62.13
2023-01-09T12:00:55.878Z,62.84
2023-01-09T12:03:52.290Z,62.69
2023-01-09T12:06:58.596Z,63.07
2023-01-09T12:10:03.024Z,62.93
2023-01-09T12:13:02.127Z,62.57
2023-01-09T12:16:32.180Z,62.69
2023-01-09T12:19:45.019Z,61.92
2023-01-09T12:22:33.173Z,61.88
2023-01-09T12:25:18.077Z,62.07
2023-01-09T12:28:10.927Z,62.22
2023-01-09T12:30:40.540Z,62.43
2023-01-09T12:33:38.267Z,61.93
2023-01-09T12:37:12.418Z,61.78
2023-01-09T12:40:53.050Z,60.84
2023-01-09T12:43:45.804Z,60.80
2023-01-09T12:46:26.599Z,60.97
2023-01-09T12:49:34.646Z,60.77
2023-01-09T12:52:12.571Z,60.74
2023-01-09T12:54:54.286Z,60.22
2023-01-09T12:57:28.707Z,59.28
2023-01-09T13:00:15.025Z,59.86
2023-01-09T13:03:03.685Z,59.46
2023-01-09T13:05:45.706Z,58.74
2023-01-09T13:08:32.366Z,58.78
2023-01-09T13:11:59.932Z,58.64
2023-01-09T13:14:44.474Z,58.79
2023-01-09T13:17:38.061Z,57.70
2023-01-09T13:20:50.687Z,55.61
2023-01-09T13:23:44.953Z,57.43
2023-01-09T13:26:26.057Z,57.21
2023-01-09T13:29:04.218Z,56.63
2023-01-09T13:31:45.300Z,56.24
2023-01-09T13:34:25.791Z,56.13
2023-01-09T13:36:56.293Z,55.17
2023-01-09T13:39:27.353Z,55.72
2023-01-09T13:42:21.777Z,55.39
2023-01-09T13:44:55.391Z,54.67
2023-01-09T13:47:28.673Z,56.05
2023-01-09T13:50:26.341Z,55.30
2023-01-09T13:52:53.858Z,55.83
2023-01-09T13:55:24.975Z,55.46
2023-01-09T13:58:08.700Z,55.25
2023-01-09T14:00:36.099Z,54.16
2023-01-09T14:03:18.651Z,55.50
2023-01-09T14:05:46.007Z,54.81
2023-01-09T14:08:22.189Z,55.14
2023-01-09T14:11:01.438Z,55.00
2023-01-09T14:13:33.396Z,54.65
2023-01-09T14:16:20.376Z,55.36
2023-01-09T14:19:19.093Z,56.11
2023-01-09T14:21:54.358Z,55.64
2023-01-09T14:24:29.561Z,56.21
2023-01-09T14:26:59.815Z,56.09
2023-01-09T14:29:29.605Z,56.43
2023-01-09T14:32:36.996Z,56.41
2023-01-09T14:35:16.852Z,56.56
2023-01-09T14:37:53.406Z,56.46
2023-01-09T14:40:23.993Z,56.45
2023-01-09T14:42:59.568Z,56.97
2023-01-09T14:45:27.672Z,56.52
2023-01-09T14:48:04.248Z,56.84
2023-01-09T14:50:55.787Z,57.10
2023-01-09T14:53:39.269Z,57.38
2023-01-09T14:56:15.044Z,57.07
2023-01-09T14:58:42.161Z,57.36
2023-01-09T15:01:22.941Z,57.17
2023-01-09T15:03:54.187Z,57.46
2023-01-09T15:06:26.595Z,57.26
2023-01-09T15:09:01.419Z,57.42
2023-01-09T15:11:29.450Z,57.54
2023-01-09T15:14:00.158Z,57.36
2023-01-09T15:16:29.049Z,57.75
2023-01-09T15:19:01.412Z,57.47
2023-01-09T15:21:31.537Z,57.74
2023-01-09T15:24:29.448Z,57.98
2023-01-09T15:27:05.194Z,57.98
2023-01-09T15:29:32.241Z,57.83
2023-01-09T15:32:04.279Z,58.10
2023-01-09T15:34:33.058Z,58.20
2023-01-09T15:37:01.001Z,57.99
2023-01-09T15:39:46.180Z,58.04
2023-01-09T15:42:57.997Z,58.00
2023-01-09T15:45:33.750Z,58.21
2023-01-09T15:48:16.241Z,58.44
2023-01-09T15:50:47.512Z,58.28
2023-01-09T15:53:26.975Z,58.55
2023-01-09T15:56:12.360Z,58.45
2023-01-09T15:58:41.497Z,58.82
2023-01-09T16:01:36.013Z,59.06
2023-01-09T16:04:12.758Z,58.75
2023-01-09T16:06:48.082Z,58.93
2023-01-09T16:09:24.059Z,58.91
2023-01-09T16:11:55.405Z,59.11
2023-01-09T16:14:25.015Z,59.24
2023-01-09T16:16:53.614Z,59.30
2023-01-09T16:19:53.775Z,59.28
2023-01-09T16:22:33.594Z,59.49
2023-01-09T16:25:18.993Z,59.38
2023-01-09T16:28:28.271Z,59.64
2023-01-09T16:31:09.333Z,59.76
2023-01-09T16:33:44.854Z,59.93
2023-01-09T16:36:14.299Z,60.08
2023-01-09T16:38:44.905Z,59.92
2023-01-09T16:41:40.024Z,60.15
2023-01-09T16:44:10.614Z,60.34
2023-01-09T16:46:43.556Z,60.37
2023-01-09T16:49:22.051Z,60.35
2023-01-09T16:51:50.776Z,60.47
2023-01-09T16:54:18.216Z,60.28
2023-01-09T16:56:49.170Z,60.69
2023-01-09T16:59:21.568Z,60.54
2023-01-09T17:01:49.362Z,60.86
2023-01-09T17:04:17.757Z,60.56
2023-01-09T17:06:45.306Z,60.69
2023-01-09T17:09:15.551Z,60.65
2023-01-09T17:11:43.145Z,60.78
2023-01-09T17:14:15.020Z,60.86
2023-01-09T17:16:45.800Z,60.90
2023-01-09T17:19:19.520Z,60.77
2023-01-09T17:21:46.910Z,60.84
2023-01-09T17:24:33.224Z,60.93
2023-01-09T17:27:20.778Z,60.93
2023-01-09T17:29:48.444Z,60.93
2023-01-09T17:32:20.327Z,61.13
2023-01-09T17:34:47.290Z,61.00
2023-01-09T17:37:17.965Z,60.83
2023-01-09T17:39:45.657Z,61.18
2023-01-09T17:42:12.946Z,61.24
2023-01-09T17:44:40.348Z,60.83
2023-01-09T17:47:14.732Z,60.89
2023-01-09T17:49:42.451Z,60.96
2023-01-09T17:52:09.445Z,61.19
2023-01-09T17:54:36.474Z,61.00
2023-01-09T17:57:03.830Z,60.87
2023-01-09T17:59:31.116Z,60.97
2023-01-09T18:01:58.640Z,60.97
2023-01-09T18:04:25.662Z,61.12
2023-01-09T18:06:54.704Z,61.01
2023-01-09T18:09:21.709Z,61.01
2023-01-09T18:11:48.694Z,61.22
2023-01-09T18:14:15.715Z,61.02
2023-01-09T18:16:44.238Z,61.17
2023-01-09T18:19:11.329Z,61.06
2023-01-09T18:21:38.590Z,61.13
2023-01-09T18:24:06.107Z,61.08
2023-01-09T18:26:33.366Z,60.92
2023-01-09T18:29:01.231Z,60.88
2023-01-09T18:31:29.901Z,60.92
2023-01-09T18:34:02.294Z,60.88
2023-01-09T18:36:30.288Z,60.97
2023-01-09T18:39:03.342Z,60.95
2023-01-09T18:41:31.717Z,61.05
2023-01-09T18:44:00.582Z,61.09
2023-01-09T18:46:32.068Z,61.14
2023-01-09T18:49:04.986Z,60.95
2023-01-09T18:51:36.315Z,60.93
2023-01-09T18:54:03.846Z,61.16
2023-01-09T18:56:31.071Z,61.12
2023-01-09T18:58:58.520Z,61.13
2023-01-09T19:01:28.453Z,61.06
2023-01-09T19:03:57.110Z,61.18
2023-01-09T19:06:25.078Z,60.97
2023-01-09T19:08:52.344Z,61.21
2023-01-09T19:11:19.355Z,61.14
2023-01-09T19:13:46.834Z,60.96
2023-01-09T19:16:14.011Z,61.10
2023-01-09T19:18:42.399Z,61.18
2023-01-09T19:21:19.218Z,61.17
2023-01-09T19:23:48.057Z,60.80
2023-01-09T19:26:25.953Z,61.00
2023-01-09T19:28:55.359Z,60.94
2023-01-09T19:31:24.624Z,60.82
2023-01-09T19:33:52.620Z,61.02
2023-01-09T19:36:20.994Z,60.86
2023-01-09T19:38:48.175Z,61.12
2023-01-09T19:41:19.806Z,60.98
2023-01-09T19:43:48.123Z,60.92
2023-01-09T19:46:22.047Z,61.10
2023-01-09T19:48:50.163Z,61.10
2023-01-09T19:51:20.357Z,61.15
2023-01-09T19:56:29.715Z,61.15
2023-01-09T19:59:00.554Z,61.21
2023-01-09T20:01:31.747Z,61.15
2023-01-09T20:04:04.814Z,61.24
2023-01-09T20:06:32.449Z,61.08
2023-01-09T20:09:02.581Z,61.18
2023-01-09T20:11:31.900Z,61.12
2023-01-09T20:14:00.058Z,61.22
2023-01-09T20:16:30.531Z,61.09
2023-01-09T20:19:01.218Z,61.16
2023-01-09T20:21:29.729Z,61.01
2023-01-09T20:24:00.158Z,61.16
2023-01-09T20:26:29.014Z,60.94
2023-01-09T20:28:57.122Z,61.02
2023-01-09T20:31:31.236Z,60.94
2023-01-09T20:33:59.757Z,61.06
2023-01-09T20:36:30.352Z,61.04
2023-01-09T20:39:01.290Z,60.87
2023-01-09T20:41:30.683Z,60.96
2023-01-09T20:44:07.219Z,60.94
2023-01-09T20:46:39.269Z,61.16
2023-01-09T20:49:09.997Z,61.31
2023-01-09T20:51:45.965Z,61.19
2023-01-09T20:54:14.638Z,61.04
2023-01-09T20:56:41.748Z,61.07
2023-01-09T20:59:14.620Z,60.79
2023-01-09T21:01:41.977Z,61.11
2023-01-09T21:04:09.644Z,60.88
2023-01-09T21:06:37.573Z,60.92
2023-01-09T21:09:05.526Z,60.86
2023-01-09T21:11:33.040Z,60.72
2023-01-09T21:14:00.291Z,60.81
2023-01-09T21:16:27.367Z,60.74
2023-01-09T21:18:55.348Z,61.03
2023-01-09T21:21:25.332Z,61.04
2023-01-09T21:23:55.595Z,61.21
2023-01-09T21:26:27.483Z,60.84
2023-01-09T21:28:57.222Z,60.90
2023-01-09T21:31:34.639Z,61.19
2023-01-09T21:34:08.143Z,61.24
2023-01-09T21:36:35.788Z,61.20
2023-01-09T21:39:07.618Z,61.30
2023-01-09T21:41:53.909Z,61.10
2023-01-09T21:44:39.367Z,61.20
2023-01-09T21:47:06.420Z,61.06
2023-01-09T21:49:35.210Z,61.13
2023-01-09T21:52:04.232Z,61.00
2023-01-09T21:54:31.536Z,61.24
2023-01-09T21:56:59.184Z,61.01
2023-01-09T21:59:26.302Z,61.06
2023-01-09T22:01:53.507Z,60.89
2023-01-09T22:04:24.079Z,61.16
2023-01-09T22:06:51.113Z,61.16
2023-01-09T22:09:18.561Z,60.81
2023-01-09T22:11:45.697Z,60.92
2023-01-09T22:14:15.999Z,60.91
2023-01-09T22:16:44.559Z,61.04
2023-01-09T22:19:13.448Z,61.11
2023-01-09T22:21:40.732Z,60.97
2023-01-09T22:24:08.054Z,61.04
2023-01-09T22:26:35.306Z,61.21
2023-01-09T22:29:02.424Z,60.92
2023-01-09T22:31:29.639Z,60.93
2023-01-09T22:33:59.393Z,61.09
2023-01-09T22:36:29.153Z,61.00
2023-01-09T22:38:58.463Z,61.17
2023-01-09T22:41:27.674Z,60.92
2023-01-09T22:43:54.756Z,61.27
2023-01-09T22:46:21.948Z,61.02
2023-01-09T22:48:49.054Z,61.20
2023-01-09T22:51:19.173Z,61.17
2023-01-09T22:53:46.687Z,61.15
2023-01-09T22:56:17.659Z,61.33
2023-01-09T22:58:45.242Z,61.29
2023-01-09T23:01:13.122Z,61.26
2023-01-09T23:03:40.418Z,61.31
2023-01-09T23:06:14.924Z,61.08
2023-01-09T23:08:43.274Z,61.28
2023-01-09T23:11:42.191Z,61.34
2023-01-09T23:14:10.765Z,61.16
2023-01-09T23:16:37.856Z,61.12
2023-01-09T23:19:17.236Z,61.05
2023-01-09T23:21:45.590Z,60.84
2023-01-09T23:24:17.485Z,61.16
2023-01-09T23:26:45.188Z,61.07
2023-01-09T23:29:13.326Z,60.78
2023-01-09T23:31:40.506Z,60.97
2023-01-09T23:34:08.357Z,61.13
2023-01-09T23:36:35.766Z,61.24
2023-01-09T23:39:04.418Z,61.17
2023-01-09T23:41:54.277Z,61.24
2023-01-09T23:44:21.353Z,61.39
2023-01-09T23:46:48.313Z,61.66
2023-01-09T23:49:15.538Z,61.39
2023-01-09T23:51:42.487Z,61.38
2023-01-09T23:54:09.634Z,61.40
2023-01-09T23:56:36.774Z,61.33
2023-01-09T23:59:06.901Z,61.41
